Time;durP1;ratioP1;P1;durP2;ratioP2;P2;SDS_P1;SDS_P2;PMS_P1;PMS_P2;Temp;Humidity;BMP_temperature;BMP_pressure;BME280_temperature;BME280_humidity;BME280_pressure;Samples;Min_cycle;Max_cycle;Signal;HPM_P1;HPM_P2
2023/12/19 00:01:23;;;;;;;5.10;4.70;;;7.60;99.90;;;;;;5072762;28;20170;-70
2023/12/19 00:03:49;;;;;;;6.40;5.28;;;7.70;99.90;;;;;;5074236;28;20488;-70
2023/12/19 00:06:14;;;;;;;6.07;5.50;;;7.60;99.90;;;;;;5074135;28;20032;-70
2023/12/19 00:08:40;;;;;;;5.97;5.47;;;7.70;99.90;;;;;;5074097;28;20047;-69
2023/12/19 00:11:06;;;;;;;5.63;5.05;;;7.70;99.90;;;;;;5074143;28;20033;-71
2023/12/19 00:13:32;;;;;;;6.05;5.55;;;7.70;99.90;;;;;;5074067;28;20036;-72
2023/12/19 00:15:58;;;;;;;5.88;5.38;;;7.70;99.90;;;;;;5073997;28;20644;-72
2023/12/19 00:18:24;;;;;;;5.90;5.30;;;7.70;99.90;;;;;;5074041;28;20095;-71
2023/12/19 00:20:52;;;;;;;4.93;4.53;;;7.70;99.90;;;;;;5073676;28;20416;-72
2023/12/19 00:23:18;;;;;;;5.47;5.00;;;7.70;99.90;;;;;;5073939;28;20127;-71
2023/12/19 00:25:44;;;;;;;5.90;5.20;;;7.80;99.90;;;;;;5073525;28;20068;-71
2023/12/19 00:28:09;;;;;;;4.93;4.47;;;7.70;99.90;;;;;;5073465;28;20040;-72
2023/12/19 00:30:36;;;;;;;5.30;4.80;;;7.70;99.90;;;;;;5073792;28;20028;-71
2023/12/19 00:33:02;;;;;;;5.00;4.60;;;7.70;99.90;;;;;;5073383;28;20040;-70
2023/12/19 00:35:27;;;;;;;5.38;4.88;;;7.70;99.90;;;;;;5105921;28;20058;-68
2023/12/19 00:37:53;;;;;;;4.03;3.72;;;7.70;99.90;;;;;;5073311;28;20076;-70
2023/12/19 00:40:19;;;;;;;4.30;3.90;;;8.00;99.90;;;;;;5073328;28;20063;-70
2023/12/19 00:42:45;;;;;;;3.83;3.53;;;7.80;99.90;;;;;;5073582;28;20045;-71
2023/12/19 00:45:11;;;;;;;3.65;3.35;;;7.80;99.90;;;;;;5055081;28;20060;-71
2023/12/19 00:47:36;;;;;;;3.95;3.65;;;7.80;99.90;;;;;;5071949;28;20555;-71
2023/12/19 00:50:02;;;;;;;4.15;3.75;;;7.70;99.90;;;;;;5071828;28;20182;-70
2023/12/19 00:52:29;;;;;;;3.42;3.13;;;7.80;99.90;;;;;;5073302;28;20392;-71
2023/12/19 00:54:55;;;;;;;4.18;3.78;;;8.30;99.90;;;;;;5073237;28;20063;-71
2023/12/19 00:57:21;;;;;;;4.13;3.83;;;7.80;99.90;;;;;;5071753;28;20045;-64
2023/12/19 00:59:46;;;;;;;3.60;3.30;;;7.80;99.90;;;;;;5073071;28;20043;-64
2023/12/19 01:02:12;;;;;;;3.60;3.30;;;7.90;99.90;;;;;;5071863;28;20044;-65
2023/12/19 01:04:37;;;;;;;3.80;3.50;;;7.90;99.90;;;;;;5071826;28;20051;-64
2023/12/19 01:07:03;;;;;;;3.33;3.03;;;7.80;99.90;;;;;;5073107;28;20123;-59
2023/12/19 01:09:29;;;;;;;3.70;3.40;;;7.80;99.90;;;;;;5071462;28;20381;-59
2023/12/19 01:11:55;;;;;;;3.42;3.13;;;7.80;99.90;;;;;;5071423;28;20462;-60
2023/12/19 01:14:20;;;;;;;3.65;3.35;;;7.90;99.90;;;;;;5071606;28;20032;-60
2023/12/19 01:16:46;;;;;;;3.80;3.50;;;7.90;99.90;;;;;;5072841;28;20078;-59
2023/12/19 01:19:12;;;;;;;3.55;3.25;;;7.80;99.90;;;;;;5071230;28;20416;-60
2023/12/19 01:21:38;;;;;;;3.47;3.17;;;7.90;99.90;;;;;;5072771;28;20029;-59
2023/12/19 01:24:04;;;;;;;3.45;3.03;;;7.90;99.90;;;;;;5105208;28;20098;-60
2023/12/19 01:26:32;;;;;;;3.10;2.90;;;7.90;99.90;;;;;;5071048;28;20040;-60
2023/12/19 01:28:58;;;;;;;3.03;2.83;;;7.90;99.90;;;;;;5072712;28;20048;-61
2023/12/19 01:31:23;;;;;;;2.88;2.67;;;7.90;99.90;;;;;;5072376;28;20500;-59
2023/12/19 01:33:50;;;;;;;3.42;3.13;;;7.90;99.90;;;;;;5070954;28;20467;-59
2023/12/19 01:36:16;;;;;;;3.00;2.80;;;8.10;99.90;;;;;;5071211;28;20514;-59
2023/12/19 01:38:41;;;;;;;3.40;3.10;;;7.90;99.90;;;;;;5072154;28;20044;-59
2023/12/19 01:41:07;;;;;;;3.08;2.78;;;7.90;99.90;;;;;;5070886;28;20056;-60
2023/12/19 01:43:33;;;;;;;3.42;3.13;;;7.80;99.90;;;;;;5072403;28;20045;-59
2023/12/19 01:45:58;;;;;;;2.92;2.72;;;8.10;99.90;;;;;;5071978;28;20412;-59
2023/12/19 01:48:26;;;;;;;2.75;2.55;;;7.90;99.90;;;;;;5072291;28;20044;-59
2023/12/19 01:50:51;;;;;;;2.85;2.55;;;7.90;99.90;;;;;;5072333;28;20037;-59
2023/12/19 01:53:19;;;;;;;3.10;2.83;;;7.90;99.90;;;;;;5072266;28;20503;-61
2023/12/19 01:55:45;;;;;;;3.05;2.75;;;7.90;99.90;;;;;;5070717;28;20400;-59
2023/12/19 01:58:12;;;;;;;2.92;2.63;;;7.90;99.90;;;;;;5070950;28;20048;-59
2023/12/19 02:00:38;;;;;;;2.55;2.35;;;7.90;99.90;;;;;;5070607;28;20048;-59
2023/12/19 02:03:05;;;;;;;2.28;2.08;;;7.90;99.90;;;;;;5072188;28;20053;-59
2023/12/19 02:05:36;;;;;;;2.13;1.92;;;8.00;99.90;;;;;;5070629;28;20123;-59
2023/12/19 02:08:02;;;;;;;3.35;2.25;;;8.10;99.90;;;;;;5070481;28;20093;-65
2023/12/19 02:10:28;;;;;;;1.90;1.80;;;8.20;99.90;;;;;;5070326;28;20045;-70
2023/12/19 02:12:54;;;;;;;2.28;2.08;;;;;;;;;;5070467;28;20044;-70
2023/12/19 02:15:20;;;;;;;1.88;1.77;;;8.00;99.90;;;;;;5071909;28;20036;-71
2023/12/19 02:17:45;;;;;;;1.90;1.80;;;8.00;99.90;;;;;;5066819;22;20575;-67
2023/12/19 02:20:11;;;;;;;2.25;2.05;;;8.10;99.90;;;;;;5030658;28;20405;-66
2023/12/19 02:22:37;;;;;;;1.85;1.75;;;8.00;99.90;;;;;;5031759;28;20485;-66
2023/12/19 02:25:03;;;;;;;2.22;1.98;;;8.00;99.90;;;;;;5030399;28;20045;-65
2023/12/19 02:27:29;;;;;;;2.00;1.90;;;8.00;99.90;;;;;;5030515;28;20049;-65
2023/12/19 02:29:55;;;;;;;2.65;2.00;;;8.00;99.90;;;;;;5032050;28;20409;-65
2023/12/19 02:32:20;;;;;;;2.30;1.95;;;8.00;99.90;;;;;;5031688;28;20120;-65
2023/12/19 02:34:48;;;;;;;2.38;2.17;;;8.30;99.90;;;;;;5030392;28;20045;-66
2023/12/19 02:37:14;;;;;;;2.60;2.40;;;8.00;99.90;;;;;;5031559;28;20048;-66
2023/12/19 02:39:39;;;;;;;1.60;1.50;;;7.90;99.90;;;;;;5031937;28;20045;-65
2023/12/19 02:45:15;;;;;;;2.22;2.03;;;7.90;99.90;;;;;;5055130;22;20057;-78
2023/12/19 02:47:41;;;;;;;1.83;1.70;;;7.90;99.90;;;;;;5030647;28;20440;-78
2023/12/19 02:50:07;;;;;;;2.38;2.17;;;7.80;99.90;;;;;;5030791;28;20038;-78
2023/12/19 02:52:33;;;;;;;2.30;2.10;;;7.80;99.90;;;;;;5030462;28;20042;-78
2023/12/19 02:54:58;;;;;;;1.92;1.83;;;7.80;99.90;;;;;;5030443;28;20041;-78
2023/12/19 02:57:24;;;;;;;2.10;2.00;;;7.70;99.90;;;;;;5013854;28;20091;-78
2023/12/19 02:59:50;;;;;;;1.90;1.80;;;7.70;99.90;;;;;;5014050;28;20033;-78
2023/12/19 03:02:16;;;;;;;1.85;1.75;;;7.70;99.90;;;;;;5013857;28;20044;-78
2023/12/19 03:04:42;;;;;;;2.00;1.80;;;7.70;99.90;;;;;;5030273;28;20045;-78
2023/12/19 03:07:09;;;;;;;1.80;1.70;;;7.70;99.90;;;;;;5013950;28;20393;-78
2023/12/19 03:09:35;;;;;;;1.38;1.27;;;7.70;99.90;;;;;;5030295;28;20045;-79
2023/12/19 03:12:06;;;;;;;1.67;1.58;;;7.70;99.90;;;;;;5014161;28;20504;-78
2023/12/19 03:14:32;;;;;;;;;;;7.60;99.90;;;;;;5030646;28;20447;-78
2023/12/19 03:16:59;;;;;;;1.50;1.40;;;7.60;99.90;;;;;;5030294;28;20288;-78
2023/12/19 03:19:25;;;;;;;1.70;1.60;;;7.60;99.90;;;;;;5013802;28;20511;-79
2023/12/19 03:21:50;;;;;;;2.00;1.90;;;7.60;99.90;;;;;;5030264;28;20038;-78
2023/12/19 03:24:16;;;;;;;1.67;1.58;;;7.60;99.90;;;;;;5017447;28;20099;-79
2023/12/19 03:26:42;;;;;;;1.70;1.60;;;7.60;99.90;;;;;;5017389;28;20049;-78
2023/12/19 03:29:07;;;;;;;1.80;1.70;;;7.60;99.90;;;;;;5017106;28;20044;-79
2023/12/19 03:31:33;;;;;;;1.52;1.42;;;7.60;99.90;;;;;;5017130;28;20123;-79
2023/12/19 03:34:02;;;;;;;2.00;1.90;;;7.50;99.90;;;;;;5017267;28;20042;-79
2023/12/19 03:36:28;;;;;;;1.65;1.55;;;7.60;99.90;;;;;;5033455;28;20389;-79
2023/12/19 03:38:54;;;;;;;1.40;1.30;;;7.50;99.90;;;;;;5033401;28;20041;-79
2023/12/19 03:41:19;;;;;;;1.70;1.60;;;7.50;99.90;;;;;;5016877;28;20499;-79
2023/12/19 03:43:45;;;;;;;1.95;1.75;;;7.50;99.90;;;;;;5033354;28;20532;-79
2023/12/19 03:46:11;;;;;;;2.08;1.88;;;7.50;99.90;;;;;;5033334;28;20103;-78
2023/12/19 03:48:36;;;;;;;1.85;1.75;;;7.50;99.90;;;;;;5033269;28;20484;-79
2023/12/19 03:51:03;;;;;;;1.95;1.77;;;7.50;99.90;;;;;;5033142;28;20099;-78
2023/12/19 03:53:28;;;;;;;1.73;1.63;;;7.50;99.90;;;;;;5033225;28;20034;-79
2023/12/19 03:55:54;;;;;;;2.15;1.92;;;7.50;99.90;;;;;;5016923;28;20082;-86
2023/12/19 03:58:20;;;;;;;2.10;1.95;;;7.50;99.90;;;;;;5033302;28;20049;-86
2023/12/19 04:00:46;;;;;;;1.55;1.45;;;7.50;99.90;;;;;;5016820;28;20412;-87
2023/12/19 04:03:12;;;;;;;1.50;1.40;;;7.50;99.90;;;;;;5033573;28;20175;-86
2023/12/19 04:05:37;;;;;;;1.65;1.55;;;7.50;99.90;;;;;;5034010;28;20099;-87
2023/12/19 04:08:03;;;;;;;1.63;1.52;;;7.50;99.90;;;;;;5033306;28;20041;-79
2023/12/19 04:10:29;;;;;;;1.50;1.40;;;7.50;99.90;;;;;;5032971;28;20045;-79
2023/12/19 04:12:55;;;;;;;1.50;1.40;;;7.50;99.90;;;;;;5032907;28;20440;-79
2023/12/19 04:15:20;;;;;;;1.80;1.70;;;7.50;99.90;;;;;;5016444;28;20386;-80
2023/12/19 04:17:46;;;;;;;1.73;1.63;;;7.40;99.90;;;;;;5016709;28;20064;-86
2023/12/19 04:20:12;;;;;;;1.52;1.42;;;7.40;99.90;;;;;;5033780;28;20412;-87
2023/12/19 04:22:38;;;;;;;1.45;1.35;;;7.40;99.90;;;;;;5016793;28;20051;-86
2023/12/19 04:25:05;;;;;;;1.60;1.50;;;7.40;99.90;;;;;;5016499;28;20128;-85
2023/12/19 04:27:30;;;;;;;1.45;1.35;;;7.50;99.90;;;;;;5016366;28;20037;-86
2023/12/19 04:29:56;;;;;;;1.60;1.50;;;7.40;99.90;;;;;;5016517;28;20473;-86
2023/12/19 04:32:22;;;;;;;1.55;1.45;;;7.50;99.90;;;;;;5016164;28;20056;-84
2023/12/19 04:34:48;;;;;;;1.52;1.42;;;7.40;99.90;;;;;;5032582;28;20038;-86
2023/12/19 04:37:14;;;;;;;1.55;1.45;;;7.40;99.90;;;;;;5032804;28;20389;-85
2023/12/19 04:39:39;;;;;;;1.50;1.40;;;7.40;99.90;;;;;;5032981;28;20044;-86
2023/12/19 04:42:08;;;;;;;1.50;1.40;;;7.50;99.90;;;;;;5016266;28;20092;-87
2023/12/19 04:44:34;;;;;;;1.38;1.27;;;7.40;99.90;;;;;;5016475;28;20053;-88
2023/12/19 04:47:00;;;;;;;1.40;1.30;;;7.40;99.90;;;;;;5016459;28;20052;-88
2023/12/19 04:49:25;;;;;;;1.60;1.50;;;7.40;99.90;;;;;;5032620;28;20472;-88
2023/12/19 04:51:54;;;;;;;1.60;1.50;;;7.40;99.90;;;;;;5032712;28;20047;-87
2023/12/19 04:54:20;;;;;;;2.05;1.33;;;7.40;99.90;;;;;;5016725;28;20704;-87
2023/12/19 04:56:45;;;;;;;1.27;1.17;;;7.40;99.90;;;;;;5032697;28;20120;-89
2023/12/19 04:59:11;;;;;;;1.48;1.38;;;7.40;99.90;;;;;;5032004;28;20059;-79
2023/12/19 05:01:40;;;;;;;1.30;1.20;;;7.40;99.90;;;;;;5031943;28;20091;-79
2023/12/19 05:04:06;;;;;;;1.63;1.45;;;7.40;99.90;;;;;;5015381;28;20037;-79
2023/12/19 05:06:33;;;;;;;1.42;1.33;;;7.60;99.90;;;;;;5032082;28;20042;-79
2023/12/19 05:08:59;;;;;;;1.00;1.00;;;7.40;99.90;;;;;;5015251;28;20037;-79
2023/12/19 05:11:25;;;;;;;1.35;1.27;;;7.40;99.90;;;;;;5015211;28;20095;-79
2023/12/19 05:13:50;;;;;;;1.50;1.40;;;7.40;99.90;;;;;;5015278;28;20508;-79
2023/12/19 05:16:17;;;;;;;1.38;1.27;;;7.40;99.90;;;;;;5015313;28;20044;-79
2023/12/19 05:18:44;;;;;;;1.30;1.20;;;7.40;99.90;;;;;;5015370;28;20480;-79
2023/12/19 05:21:11;;;;;;;1.27;1.17;;;7.40;99.90;;;;;;5031524;28;20095;-79
2023/12/19 05:23:37;;;;;;;1.52;1.42;;;7.40;99.90;;;;;;5031739;28;20128;-79
2023/12/19 05:26:04;;;;;;;1.23;1.15;;;7.40;99.90;;;;;;5015235;28;20045;-79
2023/12/19 05:28:30;;;;;;;1.38;1.27;;;7.40;99.90;;;;;;5032199;28;20091;-87
2023/12/19 05:30:56;;;;;;;1.33;1.23;;;7.40;99.90;;;;;;5015917;28;20120;-87
2023/12/19 05:33:26;;;;;;;1.50;1.40;;;7.40;99.90;;;;;;5032327;28;20587;-88
2023/12/19 05:35:52;;;;;;;1.50;1.40;;;7.40;99.90;;;;;;5032492;28;20088;-88
2023/12/19 05:38:18;;;;;;;1.30;1.20;;;7.40;99.90;;;;;;5016201;28;20085;-88
2023/12/19 05:40:44;;;;;;;1.48;1.38;;;7.70;99.90;;;;;;5015747;28;20044;-85
2023/12/19 05:43:10;;;;;;;1.25;1.15;;;7.40;99.90;;;;;;5031238;28;20124;-86
2023/12/19 05:45:36;;;;;;;1.10;1.10;;;7.40;99.90;;;;;;5031198;28;20087;-87
2023/12/19 05:48:02;;;;;;;1.52;1.42;;;7.40;99.90;;;;;;5031242;28;20045;-86
2023/12/19 05:50:27;;;;;;;1.55;1.45;;;7.40;99.90;;;;;;5031520;28;20511;-85
2023/12/19 05:52:53;;;;;;;1.50;1.40;;;7.50;99.90;;;;;;5015446;28;20041;-87
2023/12/19 05:55:19;;;;;;;1.27;1.17;;;7.50;99.90;;;;;;5015372;28;20037;-87
2023/12/19 05:57:46;;;;;;;1.15;1.13;;;7.50;99.90;;;;;;5015021;28;20045;-86
2023/12/19 06:00:12;;;;;;;1.38;1.27;;;7.50;99.90;;;;;;5031438;28;20088;-87
2023/12/19 06:02:38;;;;;;;1.15;1.15;;;7.50;99.90;;;;;;5014867;28;20447;-87
2023/12/19 06:05:07;;;;;;;0.88;0.88;;;7.50;99.90;;;;;;5015845;28;20041;-87
2023/12/19 06:07:41;;;;;;;1.27;1.20;;;7.50;99.90;;;;;;5015778;28;20214;-78
2023/12/19 06:10:12;;;;;;;1.10;1.10;;;7.50;99.90;;;;;;5014780;28;20038;-78
2023/12/19 06:12:38;;;;;;;0.90;0.90;;;7.50;99.90;;;;;;5031091;28;20049;-78
2023/12/19 06:15:08;;;;;;;1.13;1.10;;;7.50;99.90;;;;;;5030839;28;20065;-77
2023/12/19 06:17:34;;;;;;;0.95;0.95;;;7.50;99.90;;;;;;5014491;28;20136;-78
2023/12/19 06:20:01;;;;;;;1.27;1.17;;;7.50;99.90;;;;;;5014324;28;20047;-78
2023/12/19 06:22:27;;;;;;;1.05;0.93;;;7.60;99.90;;;;;;5014766;28;20037;-78
2023/12/19 06:24:53;;;;;;;1.20;1.10;;;7.60;99.90;;;;;;5030811;28;20050;-78
2023/12/19 06:27:19;;;;;;;1.58;1.13;;;7.60;99.90;;;;;;5014305;28;20390;-78
2023/12/19 06:29:46;;;;;;;1.20;1.10;;;7.50;99.90;;;;;;5030805;28;20038;-79
2023/12/19 06:32:11;;;;;;;1.42;1.33;;;8.00;99.90;;;;;;5030974;28;20053;-79
2023/12/19 06:34:37;;;;;;;1.08;1.08;;;7.60;99.90;;;;;;5014126;28;20041;-79
2023/12/19 06:37:03;;;;;;;1.00;0.98;;;7.60;99.90;;;;;;5030611;28;20052;-79
2023/12/19 06:39:29;;;;;;;1.00;1.00;;;7.60;99.90;;;;;;5014139;28;20405;-82
2023/12/19 06:41:55;;;;;;;0.90;0.90;;;7.60;99.90;;;;;;5014266;28;20048;-82
2023/12/19 06:44:21;;;;;;;0.88;0.88;;;7.60;99.90;;;;;;5014226;28;20120;-82
2023/12/19 06:46:49;;;;;;;1.10;1.10;;;7.60;99.90;;;;;;5030794;28;20053;-83
2023/12/19 06:49:27;;;;;;;1.30;1.20;;;7.60;99.90;;;;;;5030922;28;20080;-83
2023/12/19 06:51:53;;;;;;;1.10;1.00;;;7.60;99.90;;;;;;5014812;28;20080;-86
2023/12/19 06:54:19;;;;;;;0.95;0.95;;;7.60;99.90;;;;;;5017568;28;20099;-86
2023/12/19 06:56:45;;;;;;;1.00;1.00;;;7.60;99.90;;;;;;5033827;28;20420;-86
2023/12/19 06:59:10;;;;;;;1.05;1.05;;;7.70;99.90;;;;;;5019271;28;20060;-86
2023/12/19 07:01:42;;;;;;;1.35;1.25;;;7.60;99.90;;;;;;5019237;28;20034;-84
2023/12/19 07:04:08;;;;;;;1.00;1.00;;;7.60;99.90;;;;;;5020573;28;20091;-79
2023/12/19 07:06:34;;;;;;;1.30;1.20;;;7.60;99.90;;;;;;5018498;28;20037;-80
2023/12/19 07:09:00;;;;;;;0.90;0.90;;;7.60;99.90;;;;;;5034159;28;20129;-81
2023/12/19 07:11:26;;;;;;;1.00;0.90;;;7.70;99.90;;;;;;5034492;28;20141;-83
2023/12/19 07:13:52;;;;;;;1.30;1.20;;;7.70;99.90;;;;;;5034630;28;20034;-77
2023/12/19 07:16:18;;;;;;;0.85;0.85;;;7.70;99.90;;;;;;5017831;28;20034;-87
2023/12/19 07:18:45;;;;;;;1.00;1.00;;;7.70;99.90;;;;;;5034792;28;20507;-79
2023/12/19 07:21:21;;;;;;;1.00;1.00;;;7.80;99.90;;;;;;5033902;28;20382;-78
2023/12/19 07:23:48;;;;;;;0.95;0.95;;;7.70;99.90;;;;;;5033889;28;20037;-77
2023/12/19 07:26:27;;;;;;;1.13;1.13;;;7.80;99.90;;;;;;5017403;28;20377;-78
2023/12/19 07:28:54;;;;;;;0.98;0.98;;;7.90;99.90;;;;;;5033717;28;20091;-80
2023/12/19 07:31:20;;;;;;;1.00;1.00;;;7.70;99.90;;;;;;5033574;28;20041;-81
2023/12/19 07:33:45;;;;;;;1.10;1.00;;;7.70;99.90;;;;;;5033674;28;20043;-84
2023/12/19 07:36:12;;;;;;;0.80;0.80;;;7.70;99.90;;;;;;5033661;28;20045;-84
2023/12/19 07:38:37;;;;;;;0.90;0.90;;;7.80;99.90;;;;;;5033670;28;20049;-80
2023/12/19 07:41:04;;;;;;;0.95;0.95;;;7.70;99.90;;;;;;5017340;28;20132;-81
2023/12/19 07:43:31;;;;;;;0.80;0.80;;;7.80;99.90;;;;;;5016763;28;20062;-81
2023/12/19 07:45:57;;;;;;;1.30;1.20;;;7.80;99.90;;;;;;5016933;28;20056;-81
2023/12/19 07:48:23;;;;;;;1.00;1.00;;;7.80;99.90;;;;;;5033337;28;20038;-80
2023/12/19 07:50:50;;;;;;;0.90;0.90;;;7.80;99.90;;;;;;5033543;28;20132;-81
2023/12/19 07:53:15;;;;;;;1.00;1.00;;;7.80;99.90;;;;;;5016798;28;20034;-80
2023/12/19 07:55:41;;;;;;;1.00;1.00;;;7.80;99.90;;;;;;5033248;28;20048;-80
2023/12/19 07:58:07;;;;;;;0.82;0.82;;;7.80;99.90;;;;;;5033060;28;20049;-81
2023/12/19 08:00:33;;;;;;;1.02;1.02;;;7.80;99.90;;;;;;5016522;28;20040;-80
2023/12/19 08:02:59;;;;;;;1.35;1.30;;;7.90;99.90;;;;;;5033388;28;20076;-81
2023/12/19 08:05:24;;;;;;;1.30;1.20;;;7.90;99.90;;;;;;5033004;28;20041;-80
2023/12/19 08:07:50;;;;;;;1.30;1.20;;;7.90;99.90;;;;;;5032313;28;20041;-84
2023/12/19 08:10:16;;;;;;;1.40;1.30;;;7.90;99.90;;;;;;5016934;28;20069;-84
2023/12/19 08:12:41;;;;;;;1.17;1.08;;;7.90;99.90;;;;;;5017058;28;20076;-84
2023/12/19 08:15:10;;;;;;;1.23;1.13;;;7.90;99.90;;;;;;5016712;28;20038;-84
2023/12/19 08:17:37;;;;;;;1.08;1.08;;;7.90;99.90;;;;;;5016573;28;20128;-84
2023/12/19 08:20:03;;;;;;;1.27;1.17;;;7.90;99.90;;;;;;5017140;28;20045;-84
2023/12/19 08:22:29;;;;;;;1.10;1.10;;;7.90;99.90;;;;;;5016643;28;20046;-84
2023/12/19 08:24:54;;;;;;;1.38;1.27;;;8.00;99.90;;;;;;5033064;28;20087;-84
2023/12/19 08:27:23;;;;;;;1.38;1.27;;;8.10;99.90;;;;;;5016726;28;20400;-84
2023/12/19 08:29:49;;;;;;;1.15;1.08;;;8.00;99.90;;;;;;5017249;28;20037;-84
2023/12/19 08:32:15;;;;;;;1.30;1.20;;;8.00;99.90;;;;;;5033586;28;20033;-85
2023/12/19 08:34:41;;;;;;;1.20;1.10;;;8.00;99.90;;;;;;5032936;28;20033;-84
2023/12/19 08:37:06;;;;;;;1.00;1.00;;;8.00;99.90;;;;;;5032676;28;20037;-84
2023/12/19 08:39:32;;;;;;;1.10;1.10;;;8.00;99.90;;;;;;5032810;28;20251;-84
2023/12/19 08:41:59;;;;;;;0.98;0.98;;;8.00;99.90;;;;;;5032471;28;20046;-84
2023/12/19 08:44:28;;;;;;;1.23;1.13;;;8.00;99.90;;;;;;5032316;28;20401;-85
2023/12/19 08:46:53;;;;;;;1.27;1.17;;;8.00;99.90;;;;;;5032221;28;20049;-84
2023/12/19 08:49:19;;;;;;;1.45;1.27;;;8.00;99.90;;;;;;5032555;28;20531;-79
2023/12/19 08:51:46;;;;;;;1.02;1.02;;;8.10;99.90;;;;;;5032178;28;20129;-79
2023/12/19 08:54:12;;;;;;;1.50;1.40;;;8.00;99.90;;;;;;5032487;28;20333;-78
2023/12/19 08:56:37;;;;;;;1.23;1.23;;;8.10;99.90;;;;;;5032041;28;20041;-79
2023/12/19 08:59:03;;;;;;;1.35;1.25;;;8.10;99.90;;;;;;5015791;28;20052;-79
2023/12/19 09:01:29;;;;;;;1.35;1.25;;;8.00;99.90;;;;;;5015503;28;20049;-78
2023/12/19 09:03:55;;;;;;;1.50;1.40;;;8.10;99.90;;;;;;5031835;28;20147;-79
2023/12/19 09:06:21;;;;;;;1.30;1.20;;;8.20;99.90;;;;;;5015124;28;20385;-79
2023/12/19 09:08:47;;;;;;;1.40;1.30;;;8.20;99.90;;;;;;5015203;28;20099;-79
2023/12/19 09:11:12;;;;;;;1.23;1.13;;;8.20;99.90;;;;;;5031713;28;20044;-79
2023/12/19 09:13:39;;;;;;;1.20;1.13;;;8.30;99.90;;;;;;5015189;28;20429;-78
2023/12/19 09:16:08;;;;;;;1.13;1.10;;;8.30;99.90;;;;;;5015107;28;20041;-79
2023/12/19 09:18:34;;;;;;;1.60;1.50;;;8.30;99.90;;;;;;5031648;28;20056;-85
2023/12/19 09:21:00;;;;;;;1.40;1.30;;;8.30;99.90;;;;;;5015838;28;20042;-85
2023/12/19 09:23:26;;;;;;;1.58;1.48;;;8.30;99.90;;;;;;5032428;28;20060;-85
2023/12/19 09:25:52;;;;;;;1.50;1.40;;;8.30;99.90;;;;;;5015504;28;20053;-84
2023/12/19 09:28:17;;;;;;;1.35;1.25;;;8.10;99.90;;;;;;5032035;28;20033;-85
2023/12/19 09:30:43;;;;;;;1.40;1.30;;;8.40;99.90;;;;;;5032053;28;20116;-85
2023/12/19 09:33:08;;;;;;;1.10;1.10;;;8.40;99.90;;;;;;5031770;28;20382;-85
2023/12/19 09:35:34;;;;;;;1.20;1.15;;;8.40;99.90;;;;;;5015649;28;20548;-85
2023/12/19 09:38:01;;;;;;;1.20;1.20;;;8.40;99.90;;;;;;5032056;28;20183;-84
2023/12/19 09:40:30;;;;;;;1.00;1.00;;;8.40;99.90;;;;;;5031819;28;20795;-86
2023/12/19 09:42:57;;;;;;;1.40;1.30;;;8.50;99.90;;;;;;5015116;28;20041;-84
2023/12/19 09:45:24;;;;;;;1.08;1.08;;;8.50;99.90;;;;;;5015549;28;20051;-84
2023/12/19 09:48:00;;;;;;;1.15;1.10;;;8.40;99.90;;;;;;5032278;28;20052;-83
2023/12/19 09:50:28;;;;;;;1.13;1.10;;;8.50;99.90;;;;;;5015495;28;20054;-85
2023/12/19 09:52:59;;;;;;;1.30;1.20;;;8.50;99.90;;;;;;5015495;28;20037;-89
2023/12/19 09:55:28;;;;;;;1.40;1.30;;;8.60;99.90;;;;;;5015223;28;20120;-87
2023/12/19 09:57:55;;;;;;;1.17;1.15;;;8.60;99.90;;;;;;5015540;28;20077;-87
2023/12/19 10:00:22;;;;;;;1.20;1.20;;;;;;;;;;5031319;28;20045;-88
2023/12/19 10:02:47;;;;;;;1.15;1.10;;;8.60;99.90;;;;;;5015011;28;20103;-86
2023/12/19 10:05:13;;;;;;;1.10;1.10;;;8.60;99.90;;;;;;5015024;28;20439;-86
2023/12/19 10:07:40;;;;;;;0.88;0.88;;;8.60;99.90;;;;;;5014705;28;20480;-78
2023/12/19 10:10:11;;;;;;;1.17;1.13;;;8.60;99.90;;;;;;5030866;28;20418;-78
2023/12/19 10:12:48;;;;;;;1.25;1.15;;;8.60;99.90;;;;;;5014578;28;20060;-77
2023/12/19 10:15:15;;;;;;;1.05;1.05;;;8.60;99.90;;;;;;5014324;28;20041;-78
2023/12/19 10:18:01;;;;;;;1.15;1.05;;;8.70;99.90;;;;;;5031159;28;20132;-78
2023/12/19 10:20:27;;;;;;;1.00;1.00;;;8.70;99.90;;;;;;5030853;28;20052;-80
2023/12/19 10:23:02;;;;;;;1.00;1.00;;;8.70;99.90;;;;;;5031014;28;20049;-80
2023/12/19 10:25:27;;;;;;;1.30;1.20;;;8.70;99.90;;;;;;5031128;28;20041;-80
2023/12/19 10:28:09;;;;;;;1.10;1.10;;;8.70;99.90;;;;;;5014645;28;20038;-80
2023/12/19 10:30:36;;;;;;;1.08;1.08;;;8.70;99.90;;;;;;5014298;28;20042;-80
2023/12/19 10:33:03;;;;;;;1.20;1.10;;;8.70;99.90;;;;;;5017879;28;20045;-81
2023/12/19 10:35:36;;;;;;;1.20;1.10;;;8.70;99.90;;;;;;5034708;28;20038;-81
2023/12/19 10:38:02;;;;;;;1.48;1.13;;;8.80;99.90;;;;;;5018076;28;20060;-80
2023/12/19 10:40:28;;;;;;;1.20;1.10;;;8.80;99.90;;;;;;5034521;28;20404;-80
2023/12/19 10:42:55;;;;;;;1.17;1.08;;;8.80;99.90;;;;;;5018043;28;20128;-80
2023/12/19 10:45:22;;;;;;;1.02;1.02;;;;;;;;;;5017978;28;20049;-80
2023/12/19 10:47:48;;;;;;;1.30;1.20;;;;;;;;;;5017977;28;20049;-79
2023/12/19 10:50:14;;;;;;;1.00;1.00;;;;;;;;;;5034358;28;20037;-80
2023/12/19 10:52:44;;;;;;;0.93;0.93;;;;;;;;;;5017931;28;20053;-80
2023/12/19 10:55:15;;;;;;;1.00;1.00;;;;;;;;;;5034544;28;20052;-80
2023/12/19 10:57:46;;;;;;;1.27;1.17;;;;;;;;;;5034224;28;20041;-79
2023/12/19 11:00:21;;;;;;;1.25;1.20;;;;;;;;;;5034242;28;20470;-80
2023/12/19 11:03:05;;;;;;;1.10;1.10;;;;;;;;;;5017919;28;20543;-80
2023/12/19 11:05:42;;;;;;;1.00;1.00;;;;;;;;;;5034414;28;20052;-80
2023/12/19 11:08:18;;;;;;;1.10;1.10;;;;;;;;;;5034052;28;20071;-80
2023/12/19 11:10:47;;;;;;;0.90;0.90;;;;;;;;;;5017558;28;20041;-80
2023/12/19 11:13:13;;;;;;;1.10;1.10;;;8.90;99.90;;;;;;5017742;28;20048;-81
2023/12/19 11:15:49;;;;;;;1.15;1.05;;;8.90;99.90;;;;;;5017475;28;20034;-80
2023/12/19 11:18:26;;;;;;;1.33;1.23;;;8.90;99.90;;;;;;5033777;28;20099;-80
2023/12/19 11:21:07;;;;;;;1.27;1.23;;;8.90;99.90;;;;;;5017358;28;20109;-80
2023/12/19 11:23:35;;;;;;;1.13;1.10;;;8.90;99.90;;;;;;5033719;28;20054;-79
2023/12/19 11:26:17;;;;;;;1.00;1.00;;;8.90;99.90;;;;;;5017161;28;20052;-80
2023/12/19 11:28:43;;;;;;;1.00;1.00;;;8.80;99.90;;;;;;5017291;28;20497;-77
2023/12/19 11:31:32;;;;;;;1.65;1.55;;;8.90;99.90;;;;;;5033704;28;20091;-77
2023/12/19 11:34:21;;;;;;;1.00;1.00;;;8.90;99.90;;;;;;5033546;28;20041;-77
2023/12/19 11:36:59;;;;;;;1.45;1.35;;;8.90;99.90;;;;;;5017168;28;20042;-77
2023/12/19 11:39:25;;;;;;;1.33;1.23;;;8.90;99.90;;;;;;5037109;28;20507;-92
2023/12/19 11:41:52;;;;;;;1.25;1.13;;;8.80;99.90;;;;;;5020099;28;20124;-83
2023/12/19 11:44:34;;;;;;;1.40;1.30;;;8.90;99.90;;;;;;5036528;28;20058;-91
2023/12/19 11:47:16;;;;;;;1.30;1.20;;;8.80;99.90;;;;;;5020552;28;20403;-91
2023/12/19 11:49:45;;;;;;;1.63;1.52;;;8.80;99.90;;;;;;5020139;28;20049;-80
2023/12/19 11:52:33;;;;;;;1.40;1.30;;;8.90;99.90;;;;;;5034941;28;20140;-89
2023/12/19 11:55:01;;;;;;;1.58;1.48;;;8.80;99.90;;;;;;5017885;28;20041;-89
2023/12/19 11:57:27;;;;;;;1.50;1.40;;;8.80;99.90;;;;;;5035100;28;20049;-88
2023/12/19 11:59:54;;;;;;;1.60;1.50;;;8.80;99.90;;;;;;5034672;28;20045;-91
2023/12/19 12:02:46;;;;;;;1.52;1.42;;;8.80;99.90;;;;;;5035041;28;20049;-90
2023/12/19 12:05:13;;;;;;;1.05;1.05;;;8.90;99.90;;;;;;5033333;28;20427;-89
2023/12/19 12:07:40;;;;;;;1.15;1.13;;;8.80;99.90;;;;;;5018352;28;20042;-89
2023/12/19 12:10:09;;;;;;;1.50;1.40;;;8.80;99.90;;;;;;5018963;28;20077;-90
2023/12/19 12:12:35;;;;;;;1.25;1.23;;;8.80;99.90;;;;;;5018380;28;20092;-89
2023/12/19 12:15:09;;;;;;;1.48;1.38;;;8.80;99.90;;;;;;5034429;28;20088;-87
2023/12/19 12:17:36;;;;;;;1.40;1.30;;;8.80;99.90;;;;;;5018628;28;20041;-90
2023/12/19 12:20:03;;;;;;;1.55;1.45;;;8.80;99.90;;;;;;5035102;28;20048;-89
2023/12/19 12:22:30;;;;;;;1.20;1.20;;;8.80;99.90;;;;;;5018074;28;20127;-87
2023/12/19 12:24:56;;;;;;;1.67;1.58;;;8.80;99.90;;;;;;5033935;28;20048;-88
2023/12/19 12:27:22;;;;;;;1.50;1.40;;;8.80;99.90;;;;;;5034303;28;20050;-87
2023/12/19 12:29:48;;;;;;;1.55;1.45;;;8.90;99.90;;;;;;5034707;28;20286;-86
2023/12/19 12:32:14;;;;;;;1.40;1.30;;;8.80;99.90;;;;;;5034396;28;20052;-88
2023/12/19 12:34:40;;;;;;;1.30;1.20;;;8.80;99.90;;;;;;5034369;28;20056;-85
2023/12/19 12:37:05;;;;;;;1.52;1.42;;;8.80;99.90;;;;;;5017863;28;20041;-88
2023/12/19 12:39:32;;;;;;;3.03;2.63;;;8.80;99.90;;;;;;5032521;28;20481;-77
2023/12/19 12:42:05;;;;;;;1.25;1.15;;;8.80;99.90;;;;;;5016108;28;20543;-77
2023/12/19 12:44:31;;;;;;;1.25;1.15;;;8.90;99.90;;;;;;5015719;28;20493;-77
2023/12/19 12:46:57;;;;;;;1.40;1.30;;;8.80;99.90;;;;;;5031949;28;20045;-77
2023/12/19 12:49:22;;;;;;;1.20;1.10;;;8.80;99.90;;;;;;5017290;28;20381;-87
2023/12/19 12:51:55;;;;;;;1.30;1.20;;;8.90;99.90;;;;;;5016657;28;20042;-86
2023/12/19 12:54:21;;;;;;;1.25;1.15;;;8.90;99.90;;;;;;5017192;28;20040;-87
2023/12/19 12:56:48;;;;;;;1.00;1.00;;;8.80;99.90;;;;;;5033657;28;20571;-88
2023/12/19 12:59:16;;;;;;;0.95;0.95;;;8.90;99.90;;;;;;5017570;28;20050;-87
2023/12/19 13:01:44;;;;;;;1.10;1.08;;;8.90;99.90;;;;;;5017560;28;20473;-88
2023/12/19 13:04:11;;;;;;;1.20;1.10;;;9.00;99.90;;;;;;5017308;28;20500;-87